N179MS KPUB-KGLS
Flight info
| Callsign | N179MS |
|---|---|
| Flight time | N/A |
| Altitude | 39000 |
| Route | DCT TBE DCT KA36Y DCT MQP DCT ELLVR KIDDZ5 |
| Aircraft | P180/L-SBDFGM3RWXYZ/L |
Departure
| Time | 2026-04-29 16:09 |
|---|---|
| Airport | Pueblo Memorial Airport (KPUB) |
Arrival
| Time | N/A |
|---|---|
| Airport | Scholes International At Galveston Airport (KGLS) |
| Time | Latitude | Longitude | Altitude | Speed | Heading |
|---|---|---|---|---|---|
| 2026-04-29 15:53 | 38.28364 | -104.49893 | 4648 ft | 0 kts | 179° |
| 2026-04-29 16:03 | 38.28357 | -104.49898 | 4648 ft | 4 kts | 229° |
| 2026-04-29 16:04 | 38.28383 | -104.49934 | 4649 ft | 8 kts | 353° |
| 2026-04-29 16:04 | 38.28450 | -104.49937 | 4652 ft | 10 kts | 359° |
| 2026-04-29 16:04 | 38.28493 | -104.49960 | 4653 ft | 7 kts | 268° |
| 2026-04-29 16:04 | 38.28491 | -104.50053 | 4654 ft | 12 kts | 269° |
| 2026-04-29 16:05 | 38.28504 | -104.50133 | 4656 ft | 8 kts | 324° |
| 2026-04-29 16:05 | 38.28528 | -104.50201 | 4658 ft | 10 kts | 273° |
| 2026-04-29 16:05 | 38.28535 | -104.50317 | 4658 ft | 15 kts | 275° |
| 2026-04-29 16:05 | 38.28545 | -104.50462 | 4659 ft | 17 kts | 275° |
| 2026-04-29 16:06 | 38.28554 | -104.50613 | 4659 ft | 15 kts | 275° |
| 2026-04-29 16:06 | 38.28563 | -104.50748 | 4660 ft | 13 kts | 275° |
| 2026-04-29 16:06 | 38.28572 | -104.50877 | 4662 ft | 13 kts | 275° |
| 2026-04-29 16:06 | 38.28583 | -104.50972 | 4663 ft | 10 kts | 304° |
| 2026-04-29 16:07 | 38.28630 | -104.50987 | 4665 ft | 0 kts | 359° |
| 2026-04-29 16:08 | 38.28646 | -104.50987 | 4666 ft | 6 kts | 360° |
| 2026-04-29 16:08 | 38.28701 | -104.50987 | 4667 ft | 7 kts | 3° |
| 2026-04-29 16:09 | 38.28719 | -104.50929 | 4666 ft | 10 kts | 88° |
| 2026-04-29 16:09 | 38.28729 | -104.50543 | 4666 ft | 90 kts | 88° |
| 2026-04-29 16:09 | 38.28745 | -104.49503 | 5027 ft | 126 kts | 91° |
| 2026-04-29 16:09 | 38.28718 | -104.48361 | 5546 ft | 145 kts | 88° |
| 2026-04-29 16:10 | 38.28763 | -104.46976 | 6055 ft | 166 kts | 88° |
| 2026-04-29 16:10 | 38.28802 | -104.45546 | 6893 ft | 167 kts | 88° |
| 2026-04-29 16:10 | 38.28770 | -104.44031 | 7656 ft | 175 kts | 105° |
| 2026-04-29 16:10 | 38.28043 | -104.42841 | 8406 ft | 183 kts | 149° |
| 2026-04-29 16:11 | 38.26809 | -104.42506 | 9176 ft | 189 kts | 177° |
| 2026-04-29 16:11 | 38.25488 | -104.42444 | 9968 ft | 192 kts | 178° |
| 2026-04-29 16:11 | 38.24175 | -104.42368 | 10751 ft | 195 kts | 178° |
| 2026-04-29 16:11 | 38.22834 | -104.42270 | 11546 ft | 197 kts | 178° |
| 2026-04-29 16:12 | 38.21482 | -104.42152 | 12340 ft | 198 kts | 178° |
| 2026-04-29 16:12 | 38.20570 | -104.42065 | 12847 ft | 200 kts | 178° |
| 2026-04-29 16:12 | 38.18709 | -104.41877 | 13849 ft | 205 kts | 178° |
| 2026-04-29 16:12 | 38.17304 | -104.41676 | 14576 ft | 210 kts | 165° |
| 2026-04-29 16:13 | 38.16164 | -104.40564 | 15282 ft | 215 kts | 120° |
| 2026-04-29 16:13 | 38.15498 | -104.38856 | 16018 ft | 218 kts | 115° |
| 2026-04-29 16:13 | 38.14599 | -104.37331 | 16714 ft | 222 kts | 137° |
| 2026-04-29 16:13 | 38.13404 | -104.36085 | 17424 ft | 226 kts | 144° |
| 2026-04-29 16:14 | 38.12136 | -104.34922 | 18121 ft | 229 kts | 146° |
| 2026-04-29 16:14 | 38.10836 | -104.33767 | 18813 ft | 233 kts | 147° |
| 2026-04-29 16:14 | 38.09498 | -104.32587 | 19506 ft | 236 kts | 147° |
| 2026-04-29 16:14 | 38.08160 | -104.31409 | 20176 ft | 240 kts | 147° |
| 2026-04-29 16:15 | 38.06788 | -104.30202 | 20843 ft | 243 kts | 147° |
| 2026-04-29 16:15 | 38.05397 | -104.28979 | 21512 ft | 246 kts | 147° |
| 2026-04-29 16:15 | 38.03988 | -104.27741 | 22160 ft | 250 kts | 148° |
| 2026-04-29 16:15 | 38.02567 | -104.26494 | 22795 ft | 253 kts | 148° |
| 2026-04-29 16:16 | 38.01124 | -104.25227 | 23427 ft | 257 kts | 148° |
| 2026-04-29 16:16 | 37.99653 | -104.23937 | 24062 ft | 260 kts | 148° |
| 2026-04-29 16:16 | 37.98150 | -104.22617 | 24681 ft | 263 kts | 148° |
| 2026-04-29 16:16 | 37.96643 | -104.21298 | 25293 ft | 266 kts | 148° |
| 2026-04-29 16:17 | 37.95139 | -104.19979 | 25885 ft | 269 kts | 148° |
| 2026-04-29 16:17 | 37.93585 | -104.18619 | 26471 ft | 273 kts | 148° |
| 2026-04-29 16:17 | 37.92032 | -104.17260 | 27043 ft | 276 kts | 149° |
| 2026-04-29 16:17 | 37.90440 | -104.15868 | 27615 ft | 279 kts | 149° |
| 2026-04-29 16:18 | 37.88850 | -104.14477 | 28160 ft | 283 kts | 149° |
| 2026-04-29 16:18 | 37.87210 | -104.13045 | 28712 ft | 286 kts | 149° |
| 2026-04-29 16:18 | 37.85587 | -104.11626 | 29239 ft | 289 kts | 149° |
| 2026-04-29 16:18 | 37.83925 | -104.10175 | 29765 ft | 292 kts | 149° |
| 2026-04-29 16:19 | 37.82261 | -104.08724 | 30281 ft | 295 kts | 149° |
| 2026-04-29 16:19 | 37.80569 | -104.07250 | 30781 ft | 298 kts | 149° |
| 2026-04-29 16:19 | 37.78872 | -104.05769 | 31283 ft | 300 kts | 150° |
| 2026-04-29 16:19 | 37.77157 | -104.04279 | 31759 ft | 303 kts | 149° |
| 2026-04-29 16:20 | 37.75395 | -104.02745 | 32222 ft | 307 kts | 149° |
| 2026-04-29 16:20 | 37.73661 | -104.01235 | 32699 ft | 309 kts | 150° |
| 2026-04-29 16:20 | 37.71894 | -103.99698 | 33175 ft | 311 kts | 150° |
| 2026-04-29 16:20 | 37.70094 | -103.98135 | 33611 ft | 314 kts | 150° |
| 2026-04-29 16:21 | 37.68294 | -103.96575 | 34040 ft | 317 kts | 150° |
| 2026-04-29 16:21 | 37.66490 | -103.95009 | 34473 ft | 319 kts | 151° |
| 2026-04-29 16:21 | 37.64657 | -103.93420 | 34912 ft | 321 kts | 150° |
| 2026-04-29 16:21 | 37.62807 | -103.91819 | 35337 ft | 323 kts | 149° |
| 2026-04-29 16:22 | 37.60964 | -103.90221 | 35753 ft | 325 kts | 150° |
| 2026-04-29 16:22 | 37.59102 | -103.88609 | 36154 ft | 327 kts | 150° |
| 2026-04-29 16:22 | 37.57240 | -103.86997 | 36542 ft | 329 kts | 150° |
| 2026-04-29 16:22 | 37.55330 | -103.85346 | 36926 ft | 332 kts | 149° |
| 2026-04-29 16:23 | 37.53439 | -103.83716 | 37295 ft | 334 kts | 149° |
| 2026-04-29 16:23 | 37.51519 | -103.82056 | 37644 ft | 337 kts | 150° |
| 2026-04-29 16:23 | 37.49595 | -103.80397 | 37981 ft | 340 kts | 150° |
| 2026-04-29 16:23 | 37.47622 | -103.78694 | 38350 ft | 341 kts | 150° |
| 2026-04-29 16:24 | 37.45683 | -103.77023 | 38695 ft | 343 kts | 149° |
| 2026-04-29 16:24 | 37.43697 | -103.75314 | 39016 ft | 346 kts | 150° |
| 2026-04-29 16:24 | 37.41709 | -103.73603 | 39191 ft | 354 kts | 150° |
| 2026-04-29 16:25 | 37.37616 | -103.70082 | 39217 ft | 360 kts | 150° |
| 2026-04-29 16:25 | 37.33460 | -103.66515 | 39218 ft | 360 kts | 149° |
| 2026-04-29 16:26 | 37.29371 | -103.63005 | 39214 ft | 356 kts | 150° |
| 2026-04-29 16:26 | 37.25396 | -103.59348 | 39222 ft | 355 kts | 138° |
| 2026-04-29 16:27 | 37.17088 | -103.48581 | 39228 ft | 350 kts | 136° |